Time;durP1;ratioP1;P1;durP2;ratioP2;P2;SDS_P1;SDS_P2;PMS_P1;PMS_P2;Temp;Humidity;BMP_temperature;BMP_pressure;BME280_temperature;BME280_humidity;BME280_pressure;Samples;Min_cycle;Max_cycle;Signal;HPM_P1;HPM_P2
2023/10/03 00:01:40;;;;;;;54.03;31.35;;;;;;;;;;5087312;28;20377;-74
2023/10/03 00:04:10;;;;;;;56.03;32.35;;;;;;;;;;5091854;28;20079;-74
2023/10/03 00:06:39;;;;;;;52.55;31.23;;;;;;;;;;5082555;28;20461;-73
2023/10/03 00:09:12;;;;;;;54.45;31.85;;;;;;;;;;5084500;28;20189;-74
2023/10/03 00:11:38;;;;;;;58.67;33.08;;;;;;;;;;5083090;28;20044;-74
2023/10/03 00:14:07;;;;;;;54.92;31.63;;;;;;;;;;5087630;28;20062;-74
2023/10/03 00:16:34;;;;;;;56.08;33.72;;;;;;;;;;5077530;28;20051;-74
2023/10/03 00:19:00;;;;;;;55.13;34.08;;;;;;;;;;5085115;28;20047;-73
2023/10/03 00:21:27;;;;;;;52.55;31.55;;;;;;;;;;5085408;28;20044;-74
2023/10/03 00:23:53;;;;;;;54.00;34.58;;;;;;;;;;5089916;28;20064;-73
2023/10/03 00:26:22;;;;;;;59.33;33.95;;;;;;;;;;5085703;28;20388;-74
2023/10/03 00:28:49;;;;;;;56.40;35.25;;;;;;;;;;5090877;28;20048;-74
2023/10/03 00:31:15;;;;;;;56.53;34.75;;;;;;;;;;5088035;28;20056;-74
2023/10/03 00:33:41;;;;;;;58.20;36.17;;;;;;;;;;5089528;28;20079;-74
2023/10/03 00:36:16;;;;;;;65.60;36.00;;;;;;;;;;5086663;28;20044;-74
2023/10/03 00:38:42;;;;;;;64.28;37.47;;;;;;;;;;5085410;28;20039;-73
2023/10/03 00:41:08;;;;;;;59.35;36.40;;;;;;;;;;5083903;28;20042;-73
2023/10/03 00:43:34;;;;;;;58.88;35.38;;;;;;;;;;5087659;28;20093;-74
2023/10/03 00:46:01;;;;;;;51.58;35.28;;;;;;;;;;5082039;28;20343;-74
2023/10/03 00:48:27;;;;;;;59.00;35.97;;;;;;;;;;5084037;28;20075;-74
2023/10/03 00:50:54;;;;;;;57.10;36.10;;;;;;;;;;5084766;28;20055;-74
2023/10/03 00:53:20;;;;;;;58.97;36.22;;;;;;;;;;5088736;28;20043;-74
2023/10/03 00:55:47;;;;;;;61.25;34.80;;;;;;;;;;5084714;28;20048;-74
2023/10/03 01:00:41;;;;;;;53.15;33.38;;;;;;;;;;5089588;28;20491;-74
2023/10/03 01:03:24;;;;;;;50.53;33.88;;;;;;;;;;5077934;28;20534;-74
2023/10/03 01:05:52;;;;;;;59.50;34.90;;;;;;;;;;5091434;28;20044;-74
2023/10/03 01:08:18;;;;;;;54.63;34.10;;;;;;;;;;5102721;28;20052;-74
2023/10/03 01:10:44;;;;;;;52.33;33.08;;;;;;;;;;5089697;28;20495;-74
2023/10/03 01:13:13;;;;;;;50.55;32.83;;;;;;;;;;5074591;28;20055;-74
2023/10/03 01:15:40;;;;;;;51.42;32.78;;;;;;;;;;5084507;28;20055;-74
2023/10/03 01:18:12;;;;;;;52.75;32.40;;;;;;;;;;5085167;28;20451;-74
2023/10/03 01:20:41;;;;;;;55.30;32.08;;;;;;;;;;5078982;28;20079;-74
2023/10/03 01:23:11;;;;;;;53.47;33.42;;;;;;;;;;5102732;28;20445;-74
2023/10/03 01:25:42;;;;;;;52.05;31.88;;;;;;;;;;5104525;28;20039;-74
2023/10/03 01:28:09;;;;;;;52.25;30.83;;;;;;;;;;5088313;28;20495;-74
2023/10/03 01:30:40;;;;;;;52.00;31.05;;;;;;;;;;5106919;28;20032;-74
2023/10/03 01:33:07;;;;;;;50.75;30.98;;;;;;;;;;5108929;28;20051;-74
2023/10/03 01:35:33;;;;;;;50.08;30.40;;;;;;;;;;5089042;28;20127;-74
2023/10/03 01:37:59;;;;;;;48.42;30.10;;;;;;;;;;5091120;28;20051;-74
2023/10/03 01:40:26;;;;;;;52.35;30.45;;;;;;;;;;5085427;28;20040;-74
2023/10/03 01:42:52;;;;;;;47.95;30.48;;;;;;;;;;5103599;28;20499;-74
2023/10/03 01:45:21;;;;;;;51.15;30.20;;;;;;;;;;5090009;28;20036;-74
2023/10/03 01:47:49;;;;;;;51.85;31.23;;;;;;;;;;5090444;28;20384;-74
2023/10/03 01:50:17;;;;;;;48.60;29.00;;;;;;;;;;5086219;28;20510;-74
2023/10/03 01:52:43;;;;;;;54.17;29.77;;;;;;;;;;5089039;28;20540;-74
2023/10/03 01:55:12;;;;;;;48.25;27.60;;;;;;;;;;5089077;28;20059;-74
2023/10/03 01:57:42;;;;;;;46.30;27.65;;;;;;;;;;5084290;28;20203;-74
2023/10/03 02:00:28;;;;;;;44.75;28.10;;;;;;;;;;5087346;28;20180;-74
2023/10/03 02:02:54;;;;;;;50.72;26.50;;;;;;;;;;5082958;28;20056;-74
2023/10/03 02:05:24;;;;;;;43.00;26.15;;;;;;;;;;5090323;28;21758;-74
2023/10/03 02:07:51;;;;;;;47.75;25.33;;;;;;;;;;5104161;28;20052;-73
2023/10/03 02:10:18;;;;;;;46.53;25.90;;;;;;;;;;5087638;28;20051;-74
2023/10/03 02:12:55;;;;;;;46.50;24.20;;;;;;;;;;5074186;28;20172;-73
2023/10/03 02:15:23;;;;;;;38.67;23.35;;;;;;;;;;5106496;28;20062;-73
2023/10/03 02:17:53;;;;;;;42.53;22.83;;;;;;;;;;5091494;28;20048;-73
2023/10/03 02:20:30;;;;;;;41.50;23.98;;;;;;;;;;5104290;28;20048;-74
2023/10/03 02:22:57;;;;;;;38.22;20.35;;;;;;;;;;5089824;28;20043;-73
2023/10/03 02:25:30;;;;;;;41.65;21.13;;;;;;;;;;5089100;28;20169;-73
2023/10/03 02:27:57;;;;;;;42.42;22.17;;;;;;;;;;5089535;28;20048;-73
2023/10/03 02:30:25;;;;;;;34.72;21.02;;;;;;;;;;5094769;28;20444;-73
2023/10/03 02:32:54;;;;;;;37.13;21.40;;;;;;;;;;5112593;28;20047;-74
2023/10/03 02:35:22;;;;;;;35.78;20.20;;;;;;;;;;5091369;28;20078;-73
2023/10/03 02:37:49;;;;;;;36.97;20.63;;;;;;;;;;5086730;28;20466;-73
2023/10/03 02:40:21;;;;;;;34.42;19.90;;;;;;;;;;5091776;28;20070;-73
2023/10/03 02:42:48;;;;;;;36.95;20.20;;;;;;;;;;5109230;28;20047;-73
2023/10/03 02:45:17;;;;;;;36.90;20.25;;;;;;;;;;5092717;28;20048;-73
2023/10/03 02:47:43;;;;;;;37.33;20.25;;;;;;;;;;5109928;28;20087;-73
2023/10/03 02:50:12;;;;;;;32.72;18.85;;;;;;;;;;5090995;28;20487;-74
2023/10/03 02:52:39;;;;;;;40.88;19.60;;;;;;;;;;5093304;28;20107;-73
2023/10/03 02:55:08;;;;;;;33.03;18.38;;;;;;;;;;5090005;28;20047;-74
2023/10/03 02:57:35;;;;;;;36.75;18.85;;;;;;;;;;5086018;28;20059;-74
2023/10/03 03:00:05;;;;;;;36.55;19.90;;;;;;;;;;5090127;28;20039;-74
2023/10/03 03:02:32;;;;;;;33.17;19.08;;;;;;;;;;5111931;28;20043;-74
2023/10/03 03:04:59;;;;;;;35.67;18.95;;;;;;;;;;5095879;28;20063;-74
2023/10/03 03:07:27;;;;;;;35.25;19.42;;;;;;;;;;5084200;28;20055;-73
2023/10/03 03:09:59;;;;;;;35.63;18.98;;;;;;;;;;5094843;28;20069;-73
2023/10/03 03:12:25;;;;;;;37.35;20.13;;;;;;;;;;5110820;28;20039;-73
2023/10/03 03:14:52;;;;;;;32.05;18.77;;;;;;;;;;5091089;28;20071;-74
2023/10/03 03:17:20;;;;;;;35.20;19.83;;;;;;;;;;5087361;28;20494;-73
2023/10/03 03:19:47;;;;;;;31.52;18.98;;;;;;;;;;5110210;28;20048;-74
2023/10/03 03:22:16;;;;;;;35.13;19.10;;;;;;;;;;5083875;28;20053;-73
2023/10/03 03:24:42;;;;;;;35.45;18.67;;;;;;;;;;5094179;28;20052;-73
2023/10/03 03:27:12;;;;;;;34.33;17.85;;;;;;;;;;5110494;28;20043;-74
2023/10/03 03:29:57;;;;;;;32.08;17.73;;;;;;;;;;5110991;28;20495;-73
2023/10/03 03:32:27;;;;;;;33.05;17.67;;;;;;;;;;5109774;28;20050;-74
2023/10/03 03:34:53;;;;;;;35.72;17.67;;;;;;;;;;5090116;28;20055;-74
2023/10/03 03:37:22;;;;;;;33.97;18.25;;;;;;;;;;5109979;28;20784;-74
2023/10/03 03:39:54;;;;;;;30.27;16.30;;;;;;;;;;5108501;28;20051;-73
2023/10/03 03:42:22;;;;;;;33.93;16.00;;;;;;;;;;5112256;27;20050;-73
2023/10/03 03:44:48;;;;;;;31.45;16.38;;;;;;;;;;5104630;28;20085;-74
2023/10/03 03:47:15;;;;;;;31.88;15.52;;;;;;;;;;5110951;28;20387;-74
2023/10/03 03:49:41;;;;;;;31.13;15.73;;;;;;;;;;5085898;28;20119;-74
2023/10/03 03:52:11;;;;;;;31.23;16.65;;;;;;;;;;5092179;28;21508;-74
2023/10/03 03:54:39;;;;;;;30.40;16.48;;;;;;;;;;5091512;28;20064;-73
2023/10/03 03:57:05;;;;;;;30.20;16.90;;;;;;;;;;5087991;28;20089;-74
2023/10/03 03:59:32;;;;;;;28.90;15.25;;;;;;;;;;5109301;28;20047;-74
2023/10/03 04:02:00;;;;;;;31.60;16.15;;;;;;;;;;5085346;28;20055;-74
2023/10/03 04:04:26;;;;;;;29.00;15.10;;;;;;;;;;5083297;28;20039;-74
2023/10/03 04:06:54;;;;;;;26.60;14.35;;;;;;;;;;5090855;28;20278;-74
2023/10/03 04:09:20;;;;;;;24.00;11.00;;;;;;;;;;5106919;27;20463;-74
2023/10/03 04:11:47;;;;;;;31.88;14.32;;;;;;;;;;5088364;27;20078;-74
2023/10/03 04:14:13;;;;;;;30.42;13.73;;;;;;;;;;5082989;28;20047;-73
2023/10/03 04:16:40;;;;;;;34.15;14.98;;;;;;;;;;5091882;28;20105;-74
2023/10/03 04:19:07;;;;;;;33.53;14.43;;;;;;;;;;5081192;28;20043;-74
2023/10/03 04:21:33;;;;;;;33.38;13.82;;;;;;;;;;5090050;28;20047;-74
2023/10/03 04:24:02;;;;;;;33.35;14.02;;;;;;;;;;5089146;28;20040;-74
2023/10/03 04:26:28;;;;;;;36.33;13.85;;;;;;;;;;5092676;28;20462;-74
2023/10/03 04:28:56;;;;;;;33.13;14.63;;;;;;;;;;5090813;28;20055;-73
2023/10/03 04:31:22;;;;;;;35.22;15.13;;;;;;;;;;5090486;28;20538;-73
2023/10/03 04:33:49;;;;;;;33.15;13.95;;;;;;;;;;5108850;28;20050;-74
2023/10/03 04:36:16;;;;;;;41.67;14.98;;;;;;;;;;5085686;28;20399;-74
2023/10/03 04:38:42;;;;;;;39.67;15.40;;;;;;;;;;5076831;28;20047;-74
2023/10/03 04:41:09;;;;;;;38.80;15.30;;;;;;;;;;5090329;28;20099;-73
2023/10/03 04:43:35;;;;;;;43.15;16.05;;;;;;;;;;5101005;28;20047;-74
2023/10/03 04:46:04;;;;;;;44.95;16.60;;;;;;;;;;5088849;28;20423;-74
2023/10/03 04:48:30;;;;;;;36.97;16.67;;;;;;;;;;5090806;28;20070;-74
2023/10/03 04:50:59;;;;;;;40.72;17.45;;;;;;;;;;5109687;28;20096;-73
2023/10/03 04:53:25;;;;;;;43.80;18.33;;;;;;;;;;5083010;28;20454;-74
2023/10/03 04:55:52;;;;;;;34.42;17.38;;;;;;;;;;5090391;28;20387;-73
2023/10/03 04:58:18;;;;;;;51.80;21.88;;;;;;;;;;5089171;28;20055;-74
2023/10/03 05:00:44;;;;;;;43.63;21.30;;;;;;;;;;5090549;28;20069;-74
2023/10/03 05:03:10;;;;;;;44.63;19.88;;;;;;;;;;5092807;28;20043;-74
2023/10/03 05:05:37;;;;;;;42.78;21.08;;;;;;;;;;5085484;28;20113;-73
2023/10/03 05:08:03;;;;;;;42.33;19.67;;;;;;;;;;5084974;28;20056;-74
2023/10/03 05:10:30;;;;;;;51.60;21.58;;;;;;;;;;5110702;28;20073;-74
2023/10/03 05:12:59;;;;;;;48.72;23.90;;;;;;;;;;5084199;28;20058;-73
2023/10/03 05:15:26;;;;;;;51.80;24.10;;;;;;;;;;5106935;28;20110;-74
2023/10/03 05:17:54;;;;;;;50.58;24.25;;;;;;;;;;5109410;28;20495;-74
2023/10/03 05:20:20;;;;;;;42.30;21.13;;;;;;;;;;5107777;28;20126;-73
2023/10/03 05:22:47;;;;;;;55.90;25.33;;;;;;;;;;5107234;28;20035;-73
2023/10/03 05:25:19;;;;;;;54.67;26.88;;;;;;;;;;5110031;28;20075;-74
2023/10/03 05:27:51;;;;;;;45.08;23.38;;;;;;;;;;5087206;28;20039;-74
2023/10/03 05:30:17;;;;;;;50.50;25.85;;;;;;;;;;5101032;28;20048;-74
2023/10/03 05:32:43;;;;;;;47.13;25.98;;;;;;;;;;5081895;28;20059;-74
2023/10/03 05:35:11;;;;;;;60.10;25.33;;;;;;;;;;5084892;28;20082;-75
2023/10/03 05:37:37;;;;;;;51.80;24.45;;;;;;;;;;5087894;28;20444;-75
2023/10/03 05:40:15;;;;;;;51.63;24.83;;;;;;;;;;5088972;28;20155;-75
2023/10/03 05:42:47;;;;;;;46.95;21.27;;;;;;;;;;5109100;28;20085;-75
2023/10/03 05:45:13;;;;;;;42.05;18.45;;;;;;;;;;5086126;28;20051;-75
2023/10/03 05:47:44;;;;;;;41.92;17.23;;;;;;;;;;5085420;28;20044;-75
2023/10/03 05:50:11;;;;;;;42.90;15.70;;;;;;;;;;5087026;28;20043;-75
2023/10/03 05:52:37;;;;;;;45.78;13.15;;;;;;;;;;5095278;28;20044;-75
2023/10/03 05:55:05;;;;;;;39.05;11.35;;;;;;;;;;5108139;27;20126;-76
2023/10/03 05:57:31;;;;;;;40.00;10.15;;;;;;;;;;5108389;28;20623;-75
2023/10/03 05:59:57;;;;;;;42.47;9.95;;;;;;;;;;5112158;28;20130;-75
2023/10/03 06:02:23;;;;;;;38.10;9.82;;;;;;;;;;5093237;28;20044;-75
2023/10/03 06:04:50;;;;;;;35.63;9.70;;;;;;;;;;5083724;28;20072;-75
2023/10/03 06:07:16;;;;;;;45.28;9.55;;;;;;;;;;5088387;28;20055;-75
2023/10/03 06:09:42;;;;;;;22.17;6.03;;;;;;;;;;5092141;28;20118;-76
2023/10/03 06:12:11;;;;;;;25.58;7.45;;;;;;;;;;5089162;28;20105;-75
2023/10/03 06:14:39;;;;;;;20.30;6.22;;;;;;;;;;5084589;28;20052;-75
2023/10/03 06:17:07;;;;;;;19.20;5.57;;;;;;;;;;5090594;28;20046;-75
2023/10/03 06:19:33;;;;;;;15.98;4.63;;;;;;;;;;5084761;28;20448;-75
2023/10/03 06:21:59;;;;;;;18.30;4.32;;;;;;;;;;5087251;28;20131;-75
2023/10/03 06:24:28;;;;;;;15.98;5.15;;;;;;;;;;5089581;28;20074;-76
2023/10/03 06:26:55;;;;;;;11.77;4.45;;;;;;;;;;5089625;28;20056;-76
2023/10/03 06:29:23;;;;;;;13.20;4.55;;;;;;;;;;5086722;28;20043;-75
2023/10/03 06:31:49;;;;;;;13.05;3.53;;;;;;;;;;5090644;28;20075;-75
2023/10/03 06:34:16;;;;;;;14.75;3.35;;;;;;;;;;5088736;28;20457;-75
2023/10/03 06:36:43;;;;;;;15.25;3.50;;;;;;;;;;5084817;28;20079;-75
2023/10/03 06:39:09;;;;;;;12.55;3.80;;;;;;;;;;5087090;28;20044;-75
2023/10/03 06:41:35;;;;;;;14.93;3.80;;;;;;;;;;5092558;28;20090;-75
2023/10/03 06:44:02;;;;;;;15.07;3.17;;;;;;;;;;5088680;28;20028;-75
2023/10/03 06:46:28;;;;;;;9.13;2.58;;;;;;;;;;5083199;28;20059;-75
2023/10/03 06:48:54;;;;;;;14.75;3.50;;;;;;;;;;5089966;28;20051;-75
2023/10/03 06:51:20;;;;;;;9.32;3.45;;;;;;;;;;5089837;28;20126;-75
2023/10/03 06:53:47;;;;;;;13.05;3.50;;;;;;;;;;5088830;28;20063;-75
2023/10/03 06:56:14;;;;;;;13.02;4.82;;;;;;;;;;5093436;28;20048;-75
2023/10/03 06:58:40;;;;;;;9.65;2.78;;;;;;;;;;5087679;28;20059;-75
2023/10/03 07:01:08;;;;;;;9.07;2.80;;;;;;;;;;5086441;28;20452;-75
2023/10/03 07:03:35;;;;;;;9.50;2.75;;;;;;;;;;5086438;28;20048;-75
2023/10/03 07:06:01;;;;;;;12.75;2.85;;;;;;;;;;5092042;28;20556;-75
2023/10/03 07:08:27;;;;;;;4.88;2.20;;;;;;;;;;5090214;28;20112;-75
2023/10/03 07:10:54;;;;;;;10.63;2.80;;;;;;;;;;5083069;28;20492;-75
2023/10/03 07:13:22;;;;;;;13.60;2.88;;;;;;;;;;5089342;28;20046;-76
2023/10/03 07:15:51;;;;;;;14.05;2.83;;;;;;;;;;5091255;28;20392;-76
2023/10/03 07:18:17;;;;;;;13.82;2.97;;;;;;;;;;5086978;28;20058;-76
2023/10/03 07:20:44;;;;;;;14.23;3.30;;;;;;;;;;5084988;28;20062;-75
2023/10/03 07:23:10;;;;;;;12.02;2.78;;;;;;;;;;5091544;28;20052;-76
2023/10/03 07:25:36;;;;;;;11.35;2.80;;;;;;;;;;5086353;28;20124;-75
2023/10/03 07:28:02;;;;;;;11.73;3.15;;;;;;;;;;5083299;28;20077;-75
2023/10/03 07:30:28;;;;;;;10.77;2.85;;;;;;;;;;5084848;28;20472;-75
2023/10/03 07:32:55;;;;;;;11.50;2.75;;;;;;;;;;5080964;28;20130;-75
2023/10/03 07:35:22;;;;;;;8.60;2.88;;;;;;;;;;5088494;28;20128;-75
2023/10/03 07:37:49;;;;;;;8.68;2.53;;;;;;;;;;5082866;28;20048;-74
2023/10/03 07:40:15;;;;;;;8.27;2.45;;;;;;;;;;5081174;28;20062;-75
2023/10/03 07:42:42;;;;;;;8.13;2.25;;;;;;;;;;5089007;28;20036;-75
2023/10/03 07:45:09;;;;;;;7.65;2.00;;;;;;;;;;5087555;28;20833;-74
2023/10/03 07:47:37;;;;;;;5.47;2.13;;;;;;;;;;5089388;28;20044;-76
2023/10/03 07:50:03;;;;;;;8.68;2.20;;;;;;;;;;5086508;28;20063;-72
2023/10/03 07:52:30;;;;;;;7.22;2.42;;;;;;;;;;5091578;28;20066;-72
2023/10/03 07:54:56;;;;;;;9.75;2.63;;;;;;;;;;5082746;28;20442;-74
2023/10/03 07:57:25;;;;;;;10.73;2.40;;;;;;;;;;5090080;28;20048;-74
2023/10/03 07:59:55;;;;;;;8.85;1.92;;;;;;;;;;5083604;28;20044;-75
2023/10/03 08:02:26;;;;;;;11.00;2.45;;;;;;;;;;5069212;28;20056;-74
2023/10/03 08:04:52;;;;;;;8.88;2.35;;;;;;;;;;5074256;28;20514;-74
2023/10/03 08:07:22;;;;;;;7.78;1.83;;;;;;;;;;5090723;28;20087;-75
2023/10/03 08:09:50;;;;;;;5.57;1.90;;;;;;;;;;5091196;28;20584;-74
2023/10/03 08:12:26;;;;;;;6.55;1.90;;;;;;;;;;5088175;28;20130;-74
2023/10/03 08:14:53;;;;;;;6.93;2.00;;;;;;;;;;5078514;28;20044;-74
2023/10/03 08:17:27;;;;;;;7.55;2.08;;;;;;;;;;5082864;28;20449;-74
2023/10/03 08:19:53;;;;;;;5.30;1.80;;;;;;;;;;5078645;28;20120;-74
2023/10/03 08:22:20;;;;;;;4.90;1.70;;;;;;;;;;5090194;28;20624;-75
2023/10/03 08:24:46;;;;;;;5.22;1.95;;;;;;;;;;5073587;28;20055;-74
2023/10/03 08:27:19;;;;;;;5.35;1.88;;;;;;;;;;5076333;28;20399;-74
2023/10/03 08:29:53;;;;;;;3.95;2.00;;;;;;;;;;5079133;28;20047;-73
2023/10/03 08:32:20;;;;;;;6.85;1.67;;;;;;;;;;5087302;28;20048;-74
2023/10/03 08:34:46;;;;;;;3.72;1.95;;;;;;;;;;5086171;28;20048;-74
2023/10/03 08:37:19;;;;;;;10.07;2.38;;;;;;;;;;5091258;28;20048;-74
2023/10/03 08:39:48;;;;;;;6.55;2.13;;;;;;;;;;5089001;28;20044;-74
2023/10/03 08:42:17;;;;;;;3.70;1.95;;;;;;;;;;5088499;28;20048;-74
2023/10/03 08:44:52;;;;;;;7.70;2.42;;;;;;;;;;5081643;28;20043;-74
2023/10/03 08:47:28;;;;;;;7.93;2.05;;;;;;;;;;5078451;28;20048;-75
2023/10/03 08:49:58;;;;;;;4.28;2.20;;;;;;;;;;5073000;28;20079;-75
2023/10/03 08:52:39;;;;;;;10.73;2.70;;;;;;;;;;5073874;28;20351;-75
2023/10/03 08:55:09;;;;;;;5.68;2.40;;;;;;;;;;5075089;28;20097;-74
2023/10/03 08:57:40;;;;;;;7.28;2.13;;;;;;;;;;5086469;28;20546;-75
2023/10/03 09:00:09;;;;;;;7.05;2.30;;;;;;;;;;5074944;28;20058;-75
2023/10/03 09:02:45;;;;;;;8.35;2.72;;;;;;;;;;5090467;28;20040;-75
2023/10/03 09:05:19;;;;;;;7.28;2.60;;;;;;;;;;5089022;28;20487;-75
2023/10/03 09:07:46;;;;;;;9.52;2.53;;;;;;;;;;5085254;28;20450;-74
2023/10/03 09:10:22;;;;;;;13.98;3.40;;;;;;;;;;5086951;28;20043;-75
2023/10/03 09:12:49;;;;;;;9.20;2.67;;;;;;;;;;5073586;28;20116;-75
2023/10/03 09:15:17;;;;;;;8.10;2.45;;;;;;;;;;5072459;28;20068;-74
2023/10/03 09:17:43;;;;;;;6.60;2.00;;;;;;;;;;5082355;28;20122;-75
2023/10/03 09:20:20;;;;;;;4.68;2.03;;;;;;;;;;5082447;28;20040;-74
2023/10/03 09:22:46;;;;;;;6.47;2.22;;;;;;;;;;5074222;28;20048;-74
2023/10/03 09:25:15;;;;;;;10.75;2.53;;;;;;;;;;5086667;28;20074;-74
2023/10/03 09:27:42;;;;;;;6.72;2.35;;;;;;;;;;5078644;28;20048;-75
2023/10/03 09:30:22;;;;;;;9.07;2.83;;;;;;;;;;5089573;28;20082;-74
2023/10/03 09:32:50;;;;;;;9.23;2.75;;;;;;;;;;5075261;28;20547;-74
2023/10/03 09:35:16;;;;;;;4.80;2.05;;;;;;;;;;5092021;28;20048;-74
2023/10/03 09:37:48;;;;;;;6.22;2.13;;;;;;;;;;5093407;28;20036;-74
2023/10/03 09:40:17;;;;;;;7.00;2.45;;;;;;;;;;5094538;28;20054;-75
2023/10/03 09:42:48;;;;;;;14.38;2.78;;;;;;;;;;5074998;28;20037;-74
2023/10/03 09:45:27;;;;;;;9.35;3.40;;;;;;;;;;5093532;28;20044;-74
2023/10/03 09:47:58;;;;;;;9.30;3.00;;;;;;;;;;5081897;28;20048;-74
2023/10/03 09:50:35;;;;;;;8.95;3.25;;;;;;;;;;5078843;28;20040;-74
2023/10/03 09:53:06;;;;;;;12.23;4.47;;;;;;;;;;5079217;28;20459;-75
2023/10/03 09:55:44;;;;;;;11.10;3.50;;;;;;;;;;5091232;28;20052;-74
2023/10/03 09:58:10;;;;;;;7.65;3.05;;;;;;;;;;5083866;28;20056;-74
2023/10/03 10:00:39;;;;;;;11.77;3.33;;;;;;;;;;5087658;28;20115;-74
2023/10/03 10:03:06;;;;;;;7.88;3.17;;;;;;;;;;5073026;28;20488;-75
2023/10/03 10:05:33;;;;;;;13.73;4.25;;;;;;;;;;5078003;28;20036;-74
2023/10/03 10:08:10;;;;;;;12.77;3.70;;;;;;;;;;5093243;28;20055;-74
2023/10/03 10:10:36;;;;;;;11.48;3.60;;;;;;;;;;5089502;28;20055;-74
2023/10/03 10:13:12;;;;;;;13.10;3.60;;;;;;;;;;5091541;28;20044;-75
2023/10/03 10:16:20;;;;;;;9.07;3.63;;;;;;;;;;5074255;28;20059;-74
2023/10/03 10:18:46;;;;;;;10.27;3.25;;;;;;;;;;5077318;28;20048;-74
2023/10/03 10:21:25;;;;;;;10.27;3.30;;;;;;;;;;5080853;28;20519;-75
2023/10/03 10:24:15;;;;;;;10.70;3.67;;;;;;;;;;5086014;28;20617;-74
2023/10/03 10:26:42;;;;;;;10.52;3.60;;;;;;;;;;5093256;28;20152;-74
2023/10/03 10:29:08;;;;;;;8.35;3.10;;;;;;;;;;5079633;28;20044;-74
2023/10/03 10:31:43;;;;;;;9.80;3.20;;;;;;;;;;5076103;28;20418;-74
2023/10/03 10:34:19;;;;;;;10.25;3.17;;;;;;;;;;5088950;28;20051;-74
2023/10/03 10:37:01;;;;;;;8.70;3.38;;;;;;;;;;5091948;28;20480;-74
2023/10/03 10:39:47;;;;;;;10.50;3.08;;;;;;;;;;5092000;28;20492;-74
2023/10/03 10:42:14;;;;;;;8.38;3.22;;;;;;;;;;5092248;28;20055;-74
2023/10/03 10:45:01;;;;;;;7.32;3.20;;;;;;;;;;5093429;28;20432;-74
2023/10/03 10:47:27;;;;;;;8.80;3.38;;;;;;;;;;5087493;28;20080;-74
2023/10/03 10:50:00;;;;;;;10.90;3.20;;;;;;;;;;5082975;28;20515;-74
2023/10/03 10:52:30;;;;;;;12.43;3.35;;;;;;;;;;5082295;28;20079;-74
2023/10/03 10:54:57;;;;;;;5.93;2.92;;;;;;;;;;5091764;28;20055;-74
2023/10/03 10:57:27;;;;;;;6.90;3.03;;;;;;;;;;5088971;28;20063;-75
2023/10/03 10:59:54;;;;;;;8.07;3.35;;;;;;;;;;5072039;28;20570;-75
2023/10/03 11:02:22;;;;;;;9.52;2.90;;;;;;;;;;5077582;28;20036;-74
2023/10/03 11:04:54;;;;;;;8.70;2.78;;;;;;;;;;5077212;28;20132;-74
2023/10/03 11:07:21;;;;;;;8.93;3.15;;;;;;;;;;5089065;28;20048;-73
2023/10/03 11:09:48;;;;;;;8.10;2.72;;;;;;;;;;5072825;28;20056;-74
2023/10/03 11:12:22;;;;;;;7.32;2.70;;;;;;;;;;5076127;28;20101;-73
2023/10/03 11:14:48;;;;;;;11.35;3.63;;;;;;;;;;5078862;28;20043;-74
2023/10/03 11:17:15;;;;;;;10.98;3.80;;;;;;;;;;5081026;28;20060;-74
2023/10/03 11:19:41;;;;;;;9.27;3.10;;;;;;;;;;5091369;28;20044;-75
2023/10/03 11:22:11;;;;;;;10.20;3.13;;;;;;;;;;5091534;28;20056;-74
2023/10/03 11:24:39;;;;;;;9.70;3.30;;;;;;;;;;5085122;28;20040;-75
2023/10/03 11:27:05;;;;;;;12.15;3.63;;;;;;;;;;5091579;28;20052;-75
2023/10/03 11:29:43;;;;;;;9.20;3.22;;;;;;;;;;5090322;28;20052;-74
2023/10/03 11:32:23;;;;;;;11.13;3.05;;;;;;;;;;5087893;28;20052;-75
2023/10/03 11:34:50;;;;;;;9.13;3.05;;;;;;;;;;5090388;28;20047;-74
2023/10/03 11:37:31;;;;;;;12.75;3.13;;;;;;;;;;5076606;28;20523;-74
2023/10/03 11:40:18;;;;;;;8.48;3.70;;;;;;;;;;5085307;28;20104;-74
2023/10/03 11:42:45;;;;;;;10.43;3.22;;;;;;;;;;5079058;28;20138;-74
2023/10/03 11:45:18;;;;;;;7.45;2.92;;;;;;;;;;5092565;28;20040;-74
2023/10/03 11:47:45;;;;;;;10.38;2.88;;;;;;;;;;5083055;28;20096;-74
2023/10/03 11:50:11;;;;;;;9.50;3.50;;;;;;;;;;5077407;28;20104;-74
2023/10/03 11:52:37;;;;;;;8.30;3.13;;;;;;;;;;5088552;28;20032;-74
2023/10/03 11:55:04;;;;;;;8.93;3.03;;;;;;;;;;5089480;28;20048;-74
2023/10/03 11:57:30;;;;;;;7.68;2.90;;;;;;;;;;5074730;28;20044;-74
2023/10/03 12:00:01;;;;;;;11.43;3.72;;;;;;;;;;5091994;28;20135;-74
2023/10/03 12:02:27;;;;;;;7.70;3.67;;;;;;;;;;5085531;28;20052;-73
2023/10/03 12:04:53;;;;;;;8.38;2.97;;;;;;;;;;5090520;28;20063;-73
2023/10/03 12:07:19;;;;;;;9.43;2.65;;;;;;;;;;5087394;28;20052;-74
2023/10/03 12:09:46;;;;;;;11.57;3.00;;;;;;;;;;5085647;28;20048;-74
2023/10/03 12:12:13;;;;;;;9.80;3.78;;;;;;;;;;5092130;28;20047;-74
2023/10/03 12:14:45;;;;;;;12.95;3.55;;;;;;;;;;5084912;28;20045;-74
2023/10/03 12:17:11;;;;;;;8.23;3.00;;;;;;;;;;5080454;28;20055;-74
2023/10/03 12:19:37;;;;;;;9.13;3.10;;;;;;;;;;5075369;28;20055;-74
2023/10/03 12:22:03;;;;;;;5.35;2.70;;;;;;;;;;5091573;28;20510;-75
2023/10/03 12:24:29;;;;;;;10.90;2.88;;;;;;;;;;5090564;28;20427;-75
2023/10/03 12:26:58;;;;;;;11.35;3.38;;;;;;;;;;5085585;28;20106;-75
2023/10/03 12:29:31;;;;;;;11.57;2.63;;;;;;;;;;5090742;28;20052;-75
2023/10/03 12:31:57;;;;;;;9.82;2.65;;;;;;;;;;5088705;28;20514;-74
2023/10/03 12:34:25;;;;;;;10.90;3.08;;;;;;;;;;5078828;28;20123;-74
2023/10/03 12:36:51;;;;;;;6.88;2.65;;;;;;;;;;5082512;28;20149;-74
2023/10/03 12:39:20;;;;;;;7.50;2.65;;;;;;;;;;5091657;28;20055;-74
2023/10/03 12:41:46;;;;;;;7.18;3.03;;;;;;;;;;5088577;28;20411;-74
2023/10/03 12:44:13;;;;;;;4.90;2.33;;;;;;;;;;5075054;28;20117;-75
2023/10/03 12:46:40;;;;;;;7.28;2.45;;;;;;;;;;5074883;28;20044;-74
2023/10/03 12:49:07;;;;;;;10.10;3.03;;;;;;;;;;5086312;28;20468;-74
2023/10/03 12:51:34;;;;;;;8.93;2.72;;;;;;;;;;5090228;28;20084;-74
2023/10/03 12:54:00;;;;;;;8.43;2.72;;;;;;;;;;5092372;28;20036;-74
2023/10/03 12:56:27;;;;;;;10.13;3.17;;;;;;;;;;5082819;28;20453;-74
2023/10/03 12:58:54;;;;;;;10.85;3.30;;;;;;;;;;5089860;28;20075;-74
2023/10/03 13:01:20;;;;;;;8.32;3.22;;;;;;;;;;5088391;28;20050;-74
2023/10/03 13:03:46;;;;;;;9.40;2.95;;;;;;;;;;5089539;28;20041;-74
2023/10/03 13:06:14;;;;;;;6.68;3.22;;;;;;;;;;5078223;28;20067;-74
2023/10/03 13:08:44;;;;;;;7.75;3.80;;;;;;;;;;5072986;28;20055;-74
2023/10/03 13:11:13;;;;;;;10.50;3.13;;;;;;;;;;5076465;28;20488;-75
2023/10/03 13:13:41;;;;;;;8.32;2.92;;;;;;;;;;5090542;28;20052;-74
2023/10/03 13:16:08;;;;;;;9.88;3.22;;;;;;;;;;5077669;28;20060;-75
2023/10/03 13:18:37;;;;;;;9.48;3.63;;;;;;;;;;5090600;28;20105;-75
2023/10/03 13:21:04;;;;;;;8.25;3.17;;;;;;;;;;5089799;28;20058;-74
2023/10/03 13:23:31;;;;;;;12.57;3.53;;;;;;;;;;5086288;28;20048;-74
2023/10/03 13:25:57;;;;;;;9.93;3.47;;;;;;;;;;5089783;28;20044;-75
2023/10/03 13:28:25;;;;;;;10.82;3.15;;;;;;;;;;5089547;28;20058;-75
2023/10/03 13:30:51;;;;;;;11.75;3.35;;;;;;;;;;5083963;28;20076;-74
2023/10/03 13:33:18;;;;;;;9.52;3.70;;;;;;;;;;5084993;28;20098;-74
2023/10/03 13:35:47;;;;;;;8.75;3.55;;;;;;;;;;5072464;28;20080;-74
2023/10/03 13:38:13;;;;;;;10.93;3.50;;;;;;;;;;5080851;28;20052;-74
2023/10/03 13:40:39;;;;;;;10.43;3.53;;;;;;;;;;5082945;28;20124;-75
2023/10/03 13:43:06;;;;;;;14.60;4.10;;;;;;;;;;5081929;28;20098;-75
2023/10/03 13:45:32;;;;;;;13.30;3.80;;;;;;;;;;5086530;28;20046;-75
2023/10/03 13:47:59;;;;;;;12.32;3.80;;;;;;;;;;5089480;28;20134;-75
2023/10/03 13:50:26;;;;;;;9.40;3.38;;;;;;;;;;5076444;28;20052;-75
2023/10/03 13:52:55;;;;;;;11.18;3.38;;;;;;;;;;5085564;28;20055;-75
2023/10/03 13:55:25;;;;;;;12.25;4.18;;;;;;;;;;5077106;28;20123;-75
2023/10/03 13:57:52;;;;;;;8.73;3.25;;;;;;;;;;5080725;28;20059;-75
2023/10/03 14:00:18;;;;;;;11.90;3.65;;;;;;;;;;5071955;28;20047;-74
2023/10/03 14:02:45;;;;;;;11.18;3.63;;;;;;;;;;5078153;28;20101;-74
2023/10/03 14:05:11;;;;;;;8.18;3.17;;;;;;;;;;5072741;28;20400;-75
2023/10/03 14:07:37;;;;;;;8.50;2.85;;;;;;;;;;5088595;28;20128;-75
2023/10/03 14:10:13;;;;;;;13.73;3.80;;;;;;;;;;5089567;28;20083;-75
2023/10/03 14:12:39;;;;;;;9.20;3.20;;;;;;;;;;5093682;28;20044;-75
2023/10/03 14:15:09;;;;;;;7.72;2.92;;;;;;;;;;5081590;28;20181;-76
2023/10/03 14:17:35;;;;;;;12.65;4.00;;;;;;;;;;5091794;28;20052;-75
2023/10/03 14:20:02;;;;;;;9.63;3.45;;;;;;;;;;5109165;28;20403;-75
2023/10/03 14:22:28;;;;;;;9.80;3.47;;;;;;;;;;5114307;28;20055;-75
2023/10/03 14:24:54;;;;;;;8.68;3.28;;;;;;;;;;5096203;28;20054;-74
2023/10/03 14:27:21;;;;;;;9.15;3.38;;;;;;;;;;5082215;28;20165;-75
2023/10/03 14:29:47;;;;;;;11.32;3.55;;;;;;;;;;5093823;28;20505;-73
2023/10/03 14:32:18;;;;;;;7.60;2.65;;;;;;;;;;5090689;28;20497;-75
2023/10/03 14:34:45;;;;;;;11.98;3.80;;;;;;;;;;5113325;28;20407;-76
2023/10/03 14:37:11;;;;;;;12.23;3.80;;;;;;;;;;5096268;28;20448;-75
2023/10/03 14:39:40;;;;;;;9.63;3.65;;;;;;;;;;5093172;28;20126;-76